Terminal Aerodrome Forecast
Issued by NWS

Home | Current Version | Previous Version | Text Only | Print | Product List | Glossary On
Versions: 1 2 3 4 5 6 7 8 9 10 11 12 13 14 15 16 17 18 19 20 21
000
FTUS45 KRIW 022300
TAFRKS
TAF
KRKS 022335Z 0300/0324 25008KT 1SM -SN SCT005 OVC018
      TEMPO 0304/0308 1/2SM SN OVC005
     FM030800 26011KT 2SM -SN SCT006 OVC015
     FM031500 26008KT 4SM -SN OVC020
      TEMPO 0318/0322 03010G20KT=

USA.gov is the U.S. government's official web portal to all federal, state and local government web resources and services.